Terminal Aerodrome Forecast
Issued by NWS

Home | Current Version | Previous Version | Graphics & Text | Print | Product List | Glossary On
Versions: 1 2 3 4 5 6 7 8 9 10 11 12 13 14 15
000
FTUS43 KFGF 222000 AAA
TAFBJI
TAF AMD
KBJI 222021Z 2220/2318 11006KT 3SM -RA BR OVC006
     FM230000 10008KT 2SM -RASN BR OVC004
     FM230300 07007KT 1 1/2SM -SN BR OVC003
     FM231100 04006KT 1 1/2SM -SN BR OVC003=

USA.gov is the U.S. government's official web portal to all federal, state and local government web resources and services.